Timeline UpdatesTrip UpdatesNews PostsPvt PostsTravel TipsAdmin PostsConv PostsFollowed PostsChat RequestsBlog PostsPNR Posts

Disclaimer
Search
 
 
Thu Jul 31, 2014 06:47:05 ISTHomeTrainsΣChainsAtlasPNRForumGalleryNewsFAQTripsMembersLoginFeedback
No Recent News for this Train
Other Trains in the News **new
Latest...
.
Fri Jun 20, 2014 (04:04PM)
⇐ Return Journey: Train# 12522

12521/Rapti Sagar SF Express

Jul 02 2013 (6:46PM)
Change Departure Station:
Change Arrival Station:
Post a Train Travel TipPost a Train Travel Tip **new
Post a Comment/Question/Picture/VideoPost a Comment/Question/Picture/Video
Pantry/Catering
✓ Pantry Car Avbl
✓ Catering Avbl
Loco/Rake Reversals
LJN/Lucknow Junction (6); SRR/Shoranur Junction (7); MAS/Chennai Central (12);
RSA - Rake Sharing
NO RSA.
Rake/Coach Composition
LOCO-SLR-GS-A1-B1-B2-B3-PC-S1-S2-S3-S4-S5-S6-S7-S8-S9-S10-S11-S12-S13-S14-GS-GS-SLR
Loco
Loco Link: BJU to JHS - GD WDM 3A JHS to MAS...
Read more...
- ET WAP 4 MAS to ERS - AJJ WAM 4
News    PNR    Forum    Time-Table    Availability    Fare Chart    Map    Arr/Dep History    Trips    Gallery    ΣChains    X/O    Timeline    
Travel Time: 5h 0m    2 halts    Distance: 334 km    Avg Speed: 66 km/hr
Type: SuperFast
Zone: ECR/East Central
Departs @ 23:45 (Avg 2h 37m late)
Platform# 8
   W   
Chennai Central/MAS 
Arrives @ 04:45 +1 night (Avg 3h 40m late)
Platform# ???
    T  
Salem Junction/SA 

2 halts. 71 intermediate Stations between Chennai Central and Salem Junction

Show ALL intermediate Stations  Show Old Time-Table

#CodeStation NameX/OArrivesAvgDepartsAvgHaltPFDay#KmSpeedElevZoneAddress
1BJUBarauni Junction (9)  -23:00+051-2735.35749mECRBegusarai, Bihar
2SPJSamastipur Junction (9)  23:53+1023:58+105m--1-2684.76455mECRSamastipur, Bihar
3MFPMuzaffarpur Junction (6)  00:47+1800:57+1710m42-2632.66057mECRMuzaffarpur, Bihar
4HJPHajipur Junction (3)  01:51+2601:52+301m22-2578.83355mECR06224-272230, Bihar
5SEESonpur Junction (4)X  02:02+2902:05+293m--2-2573.25956mECRSaran, Bihar
6CPRChhapra Junction (6)  03:00+4203:05+445m--2-2519.28258mNERDistt: Saran, Bihar
7SVSiwan Junction (4)  03:50+5503:55+555m--2-2458.08470mNERSiwan, Bihar
8BTTBhatni Junction (5)  04:30+1:0704:35+1:115m--2-2409.36673mNERDeoria, Uttar Pradesh
9DEOSDeoria Sadar (3)  04:54+1:2004:55+1:251m--2-2388.53579mNERDeoria- 274001, Uttar Pradesh
10GKPGorakhpur Junction (10)X  06:20+1:1106:35+1:1615m92-2339.45584mNERGorakhpur 273001, Uttar Pradesh
11KLDKhalilabad (3)  07:12+1:2207:13+1:231m32-2305.46686mNERKhalilabad- 272175, Uttar Pradesh
12BSTBasti (4)  07:40+1:2407:45+1:245m12-2275.97390mNERBasti 272001, Uttar Pradesh
13MURMankapur Junction (5)O  08:35+1:2408:37+1:242m12-2215.473104mNERDistrict Gonda, Uttar Pradesh
14GDGonda Junction (3)  09:00+1:2909:05+1:295m12-2187.565110mNERGonda 271001, Uttar Pradesh
15BBKBarabanki Junction (4)  10:27+1:2810:29+1:312m12-2098.253122mNRPin-225001, Uttar Pradesh
16BNZBadshahnagar (2)  10:57+1:4210:58+1:431m12-2073.621116mNERLucknow, Uttar Pradesh
17LJNLucknow Junction (6)X11:30+1:2211:50+1:2420m12-2062.562126mNERLucknow, Uttar Pradesh
18ONUnnao Junction (5)X  12:42+1:4712:43+1:481m52-2008.731129mNRUnnao, Uttar Pradesh
19CNBKanpur Central (10)  13:17+1:5813:22+2:075m52-1991.363128mNCRKANPUR-208 001, Uttar Pradesh
20PHNPokhrayan (2)  14:18+2:2314:19+2:261m12-1932.872133mNCRPukhrayan, Uttar Pradesh
21ORAIOrai (3)  14:59+2:3215:00+2:371m--2-1885.065139mNCROrai(05162-252206), Uttar Pradesh
22JHSJhansi Junction (7)16:45+2:5317:00+3:1215m--2-1771.086259mNCRJhansi, Uttar Pradesh
23LARLalitpur (3)  18:03+3:3218:04+3:371m12-1680.767373mNCRLalitpur, Uttar Pradesh
24BPLBhopal Junction (6)X  21:05+3:1921:15+3:1510m12-1479.252497mWCRBhopal, Madhya Pradesh
25ETItarsi Junction (7)  23:00+3:1623:05+3:215m--2-1387.567329mWCRItarsi 461111, Madhya Pradesh
26GDYAGhoradongri (3)  00:08+3:2800:09+3:281m--3-1317.148410mCRBetul, Madhya Pradesh
27BZUBetul (3)X  00:54+3:4000:55+3:421m--3-1281.257644mCRBetul, Madhya Pradesh
28AMLAAmla Junction (5)XO  01:19+3:4201:22+3:423m--3-1258.362733mCRAmla Distt. Betul, Madhya Pradesh
29PARPandhurna (2)X  02:24+3:5202:25+3:531m--3-1194.760481mCRDistt: Chhindwara, Madhya Pradesh
30NGPNagpur Junction (8)  04:10+3:4904:20+3:5010m23-1090.378314mCRNagpur 440001, Maharashtra
31SEGMSewagram Junction (5)  05:19+4:0305:20+4:041m--3-1014.169279mCRWardha, Maharashtra
32HGTHinganghat (3)  05:49+4:0305:50+4:041m--3-981.077228mCRHinganghat, Maharashtra
33CDChandrapur Maharashtra (3)  06:57+4:0806:58+4:091m--3-895.612194mCRChandrapur 442401, Maharashtra
34BPQBalharshah Junction (5)XO  08:05+3:2508:35+3:1030m--3-881.884188mCRBallarpur. Ph : 07172 - 240341, Maharashtra
35SKZRSirpur Kaghaznagar (3)  09:25+3:2309:26+3:231m23-812.062181mSCRAdilabad Dist., Telangana
36BPABellampalli (3)  10:03+3:2310:04+3:241m23-773.679205mSCRTel:.08735 223298, Telangana
37MCIManchiryal (3)  10:19+3:2810:20+3:281m23-753.792159mSCRAdilabad Dist., Telangana
38RDMRamagundam (3)X  10:29+3:3710:30+3:381m23-740.065170mSCRKarimnagar Dist. Ph : 08728 - 255237, Telangana
39WLWarangal (3)  12:03+3:4112:05+3:422m13-638.871271mSCRWarangal., Telangana
40KMTKhammam (2)  13:36+3:2113:37+3:211m13-531.245118mSCRKhammam 507001, Telangana
41BZAVijayawada Junction (10)X  15:50+3:0416:05+3:0815m73-430.97324mSCRVijayawada 520001, Andhra Pradesh
42CLXChirala (4)  17:18+3:1317:19+3:151m--3-341.9678mSCRChirala, Andhra Pradesh
43OGLOngole (3)X  18:03+3:2318:04+3:261m33-292.69312mSCROngole, Andhra Pradesh
44NLRNellore (4)  19:19+1:4319:20+1:431m33-175.82521mSCRNellore, Andhra Pradesh
45GDRGudur Junction (3)  20:53+2:3920:55+2:392m13-137.45719mSCRGudur, Andhra Pradesh
46MAS»Chennai Central (12)»X23:20+2:4223:45+2:3725m830.0659mSRChennai 600003, Tamil Nadu
47KPDKatpadi Junction (5)X  01:45+3:1701:50+3:145m14129.459213mSRVellore 632007, Tamil Nadu
48JTJJolarpettai Junction (5)  03:15+3:3003:20+3:295m--4213.385405mSRJolarpettai, Tamil Nadu
49SA•Salem Junction (6)•X  04:45+3:4004:50+3:395m--4333.549283mSRSalem, Tamil Nadu
50EDErode Junction (4)X  06:05+3:1306:15+3:2910m24394.970175mSRErode ph.no: 0424-2256111, Tamil Nadu
51TUPTiruppur (2)  06:58+4:0407:00+4:042m14445.161305mSRTiruppur. Ph:0421-2200450, Tamil Nadu
52CBECoimbatore Main Junction (6)X  07:50+2:5507:55+2:545m14495.647416mSRCoimbatore 641001, Tamil Nadu
53PGTPalakkad Junction (4)XO  09:05+3:1809:10+3:185m--4550.96684mSRPalghat Tel: 0491 2555231, Kerala
54OTPOttappalam (2)X  09:39+3:5509:40+3:561m--4582.61930mSROttapalam, Kerala
55SRRShoranur Junction (7)X10:20+3:1510:30+3:2110m54595.55226mSRShoranur ph.no 0466-2222913, Kerala
56WKIWadakkanchery (2)X  10:49+4:1410:50+4:141m14612.03640mSRWadackanchery, Kerala
57TCRThrissur (4)  11:17+3:0811:20+3:083m14628.4596mSRThrissur Tel: 0487 2423150, Kerala
58IJKIrinjalakkuda (2)  11:44+3:0211:45+3:021m--4652.24318mSRKalletumkara, Kerala
59CKIChalakkudy (3)X  11:54+3:4211:55+3:431m14658.6659mSRPh: 0480- 2701368, Kerala
60AFKAngamaly for Kalady (3)  12:09+3:5312:10+3:561m--4673.85016mSRPhone: 0484-2452340, Kerala
61AWYAluva (3)  12:21+3:4612:23+3:462m14683.03212mSRPh: 0484-2624141, Kerala
62ERNErnakulam Town (North) (2)  12:55+3:1112:57+3:112m24699.999mSRTel: 0484 2395198, Kerala
63ERSErnakulam Junction (South) (6)  13:15+3:03---4702.4-3mSRErnakulam 682016, Kerala
Scroll to Top
Scroll to Bottom